Time;durP1;ratioP1;P1;durP2;ratioP2;P2;SDS_P1;SDS_P2;PMS_P1;PMS_P2;Temp;Humidity;BMP_temperature;BMP_pressure;BME280_temperature;BME280_humidity;BME280_pressure;Samples;Min_cycle;Max_cycle;Signal;HPM_P1;HPM_P2
2021/08/02 00:16:37;;;;;;;7.97;6.47;;;;;;;;;;4485287;28;20097;-66
2021/08/02 00:19:05;;;;;;;9.23;6.00;;;;;;;;;;4204766;33;20103;-66
2021/08/02 00:21:31;;;;;;;9.00;5.72;;;;;;;;;;4177764;34;20205;-65
2021/08/02 00:23:57;;;;;;;11.07;6.07;;;;;;;;;;4170929;34;20505;-66
2021/08/02 00:26:24;;;;;;;9.38;6.40;;;;;;;;;;4183630;34;20121;-66
2021/08/02 00:28:51;;;;;;;7.35;6.07;;;;;;;;;;4195133;34;20105;-66
2021/08/02 00:31:18;;;;;;;12.07;5.28;;;;;;;;;;4172535;34;20536;-66
2021/08/02 00:33:44;;;;;;;7.75;6.20;;;;;;;;;;4164453;34;20121;-66
2021/08/02 00:36:25;;;;;;;7.53;5.70;;;;;;;;;;4170058;34;20128;-66
2021/08/02 00:39:25;;;;;;;7.40;5.43;;;;;;;;;;4192803;34;20121;-66
2021/08/02 00:42:17;;;;;;;9.80;5.65;;;;;;;;;;4171561;34;20121;-65
2021/08/02 00:45:02;;;;;;;6.80;5.78;;;;;;;;;;4181015;34;20548;-65
2021/08/02 00:47:48;;;;;;;8.90;5.78;;;;;;;;;;4181789;34;20094;-67
2021/08/02 00:50:19;;;;;;;6.37;5.33;;;;;;;;;;4186388;33;20187;-67
2021/08/02 00:52:55;;;;;;;13.50;5.97;;;;;;;;;;4194944;34;20216;-67
2021/08/02 00:55:22;;;;;;;8.98;6.07;;;;;;;;;;4183271;33;20190;-67
2021/08/02 00:57:49;;;;;;;10.13;5.35;;;;;;;;;;4183731;34;20124;-67
2021/08/02 01:00:16;;;;;;;12.20;7.07;;;;;;;;;;4206118;33;20132;-67
2021/08/02 01:02:47;;;;;;;9.35;5.72;;;;;;;;;;4194535;34;20102;-67
2021/08/02 01:05:13;;;;;;;7.93;6.05;;;;;;;;;;4172118;33;20122;-67
2021/08/02 01:07:59;;;;;;;9.75;5.60;;;;;;;;;;4194378;34;20585;-67
2021/08/02 01:10:25;;;;;;;6.43;5.25;;;;;;;;;;4183527;34;20169;-67
2021/08/02 01:12:54;;;;;;;8.65;5.82;;;;;;;;;;4183447;34;20539;-67
2021/08/02 01:15:21;;;;;;;8.18;5.62;;;;;;;;;;4171671;33;20135;-67
2021/08/02 01:17:49;;;;;;;7.82;5.18;;;;;;;;;;4182527;34;20085;-67
2021/08/02 01:20:18;;;;;;;6.85;5.03;;;;;;;;;;4183367;33;20460;-67
2021/08/02 01:22:46;;;;;;;6.97;6.10;;;;;;;;;;4183273;34;20085;-67
2021/08/02 01:25:35;;;;;;;8.85;5.55;;;;;;;;;;4183078;33;20101;-67
2021/08/02 01:28:14;;;;;;;9.55;5.53;;;;;;;;;;4219063;33;20098;-67
2021/08/02 01:30:44;;;;;;;7.53;5.45;;;;;;;;;;4194572;34;20556;-67
2021/08/02 01:33:15;;;;;;;6.75;5.10;;;;;;;;;;4194876;34;20112;-67
2021/08/02 01:35:42;;;;;;;7.68;5.28;;;;;;;;;;4182869;34;20157;-67
2021/08/02 01:38:09;;;;;;;11.05;6.43;;;;;;;;;;4182952;34;20117;-67
2021/08/02 01:40:35;;;;;;;11.77;6.00;;;;;;;;;;4193353;34;20197;-67
2021/08/02 01:43:03;;;;;;;9.30;6.50;;;;;;;;;;4182765;34;20167;-70
2021/08/02 01:45:30;;;;;;;9.85;6.05;;;;;;;;;;4183192;34;20117;-71
2021/08/02 01:48:05;;;;;;;8.70;5.53;;;;;;;;;;4172508;34;20090;-71
2021/08/02 01:51:09;;;;;;;10.90;6.07;;;;;;;;;;4182841;34;20098;-71
2021/08/02 01:54:05;;;;;;;9.15;5.43;;;;;;;;;;4166945;34;20113;-70
2021/08/02 01:56:48;;;;;;;11.32;5.75;;;;;;;;;;4166995;34;20110;-71
2021/08/02 01:59:19;;;;;;;10.90;5.60;;;;;;;;;;4166794;34;20177;-70
2021/08/02 02:01:51;;;;;;;14.57;6.10;;;;;;;;;;4188477;34;20134;-70
2021/08/02 02:04:18;;;;;;;9.57;6.25;;;;;;;;;;4177957;34;20120;-71
2021/08/02 02:06:45;;;;;;;11.88;6.28;;;;;;;;;;4166540;34;20130;-71
2021/08/02 02:09:14;;;;;;;11.18;6.20;;;;;;;;;;4166431;34;20155;-70
2021/08/02 02:11:47;;;;;;;11.18;6.25;;;;;;;;;;4177914;34;20122;-71
2021/08/02 02:14:13;;;;;;;15.77;6.78;;;;;;;;;;4155835;34;20120;-70
2021/08/02 02:16:43;;;;;;;10.38;6.70;;;;;;;;;;4155752;34;20645;-71
2021/08/02 02:19:09;;;;;;;12.18;7.05;;;;;;;;;;4194207;34;20093;-71
2021/08/02 02:21:35;;;;;;;7.47;6.05;;;;;;;;;;4193649;34;20117;-69
2021/08/02 02:24:03;;;;;;;9.35;6.00;;;;;;;;;;4182325;34;20132;-69
2021/08/02 02:26:32;;;;;;;9.88;6.37;;;;;;;;;;4182649;34;20108;-68
2021/08/02 02:29:00;;;;;;;7.60;6.30;;;;;;;;;;4182830;34;20268;-69
2021/08/02 02:31:27;;;;;;;11.55;6.32;;;;;;;;;;4171130;34;20105;-69
2021/08/02 02:34:00;;;;;;;10.98;6.47;;;;;;;;;;4182261;34;20200;-68
2021/08/02 02:36:28;;;;;;;10.57;6.03;;;;;;;;;;4194645;34;20135;-68
2021/08/02 02:38:54;;;;;;;16.80;10.40;;;;;;;;;;4182696;34;20093;-68
2021/08/02 02:41:21;;;;;;;16.37;7.93;;;;;;;;;;4205095;34;20128;-68
2021/08/02 02:43:47;;;;;;;12.65;7.47;;;;;;;;;;4182350;34;20141;-68
2021/08/02 02:46:13;;;;;;;11.93;7.43;;;;;;;;;;4182380;34;20109;-70
2021/08/02 02:48:39;;;;;;;10.57;6.93;;;;;;;;;;4182418;34;20517;-71
2021/08/02 02:51:06;;;;;;;7.97;7.18;;;;;;;;;;4182265;34;20614;-70
2021/08/02 02:53:32;;;;;;;15.65;6.72;;;;;;;;;;4182039;34;20145;-71
2021/08/02 02:55:58;;;;;;;10.70;6.68;;;;;;;;;;4181944;34;20201;-71
2021/08/02 02:58:25;;;;;;;11.98;7.12;;;;;;;;;;4182308;34;20109;-70
2021/08/02 03:00:51;;;;;;;9.68;6.95;;;;;;;;;;4193341;34;20114;-69
2021/08/02 03:03:19;;;;;;;14.73;7.47;;;;;;;;;;4193336;34;20227;-69
2021/08/02 03:05:45;;;;;;;13.57;7.07;;;;;;;;;;4170561;34;20159;-69
2021/08/02 03:08:15;;;;;;;13.52;6.68;;;;;;;;;;4193457;34;20158;-70
2021/08/02 03:10:43;;;;;;;15.63;6.35;;;;;;;;;;4181305;34;20609;-70
2021/08/02 03:13:10;;;;;;;16.27;6.65;;;;;;;;;;4170246;34;20221;-70
2021/08/02 03:15:37;;;;;;;18.45;7.40;;;;;;;;;;4180933;34;20132;-70
2021/08/02 03:18:03;;;;;;;19.00;6.57;;;;;;;;;;4181414;34;20086;-70
2021/08/02 03:20:32;;;;;;;19.65;7.00;;;;;;;;;;4182400;34;20128;-70
2021/08/02 03:23:35;;;;;;;14.90;7.65;;;;;;;;;;4181330;34;20534;-71
2021/08/02 03:26:09;;;;;;;10.43;6.45;;;;;;;;;;4204206;34;20433;-70
2021/08/02 03:28:35;;;;;;;10.70;6.87;;;;;;;;;;4193183;34;20090;-70
2021/08/02 03:31:02;;;;;;;10.68;6.87;;;;;;;;;;4192904;34;20110;-69
2021/08/02 03:33:33;;;;;;;10.57;7.07;;;;;;;;;;4193613;34;20113;-70
2021/08/02 03:36:01;;;;;;;9.43;6.45;;;;;;;;;;4181752;34;20121;-70
2021/08/02 03:38:27;;;;;;;11.27;6.75;;;;;;;;;;4181495;34;20121;-70
2021/08/02 03:40:54;;;;;;;15.40;6.55;;;;;;;;;;4181429;34;20114;-70
2021/08/02 03:43:20;;;;;;;14.23;7.53;;;;;;;;;;4193205;34;20100;-70
2021/08/02 03:45:46;;;;;;;13.90;7.20;;;;;;;;;;4181336;34;20529;-70
2021/08/02 03:48:12;;;;;;;16.83;7.25;;;;;;;;;;4181421;34;20144;-70
2021/08/02 03:50:39;;;;;;;18.70;7.05;;;;;;;;;;4181820;34;20120;-70
2021/08/02 03:53:05;;;;;;;15.65;7.07;;;;;;;;;;4170329;34;20118;-70
2021/08/02 03:55:31;;;;;;;16.23;7.43;;;;;;;;;;4181465;34;20111;-70
2021/08/02 03:57:58;;;;;;;13.70;7.35;;;;;;;;;;4170319;34;20419;-70
2021/08/02 04:00:24;;;;;;;13.43;6.47;;;;;;;;;;4181277;34;20532;-70
2021/08/02 04:02:50;;;;;;;11.35;7.35;;;;;;;;;;4181519;34;20117;-69
2021/08/02 04:05:19;;;;;;;17.95;7.45;;;;;;;;;;4183459;33;20125;-70
2021/08/02 04:07:47;;;;;;;9.32;6.18;;;;;;;;;;4183647;34;20177;-70
2021/08/02 04:10:13;;;;;;;10.00;5.78;;;;;;;;;;4183354;33;20113;-70
2021/08/02 04:12:39;;;;;;;9.75;5.80;;;;;;;;;;4183556;34;20105;-70
2021/08/02 04:15:09;;;;;;;10.93;6.85;;;;;;;;;;4194789;33;20121;-70
2021/08/02 04:17:35;;;;;;;10.38;5.60;;;;;;;;;;4194570;34;20122;-69
2021/08/02 04:20:04;;;;;;;14.07;6.70;;;;;;;;;;4194530;33;20123;-69
2021/08/02 04:22:30;;;;;;;12.05;6.32;;;;;;;;;;4183226;34;20204;-70
2021/08/02 04:24:58;;;;;;;10.32;6.32;;;;;;;;;;4183823;34;20115;-69
2021/08/02 04:27:24;;;;;;;12.65;6.30;;;;;;;;;;4172069;34;20124;-69
2021/08/02 04:29:50;;;;;;;13.48;5.68;;;;;;;;;;4183090;34;20133;-69
2021/08/02 04:32:16;;;;;;;8.80;5.15;;;;;;;;;;4183026;34;20122;-69
2021/08/02 04:34:42;;;;;;;8.13;5.10;;;;;;;;;;4183166;34;20117;-69
2021/08/02 04:37:08;;;;;;;8.90;4.70;;;;;;;;;;4183148;34;20210;-70
2021/08/02 04:39:34;;;;;;;6.50;4.25;;;;;;;;;;4194712;34;20147;-70
2021/08/02 04:42:01;;;;;;;7.68;4.93;;;;;;;;;;4183212;34;20519;-69
2021/08/02 04:44:26;;;;;;;9.95;5.18;;;;;;;;;;4183417;34;20587;-70
2021/08/02 04:46:54;;;;;;;7.10;4.47;;;;;;;;;;4171644;34;20125;-70
2021/08/02 04:49:20;;;;;;;8.90;4.28;;;;;;;;;;4194490;34;20201;-70
2021/08/02 04:51:47;;;;;;;6.65;4.50;;;;;;;;;;4194582;34;20190;-70
2021/08/02 04:54:13;;;;;;;8.45;4.00;;;;;;;;;;4171900;34;20109;-70
2021/08/02 04:56:39;;;;;;;13.15;4.87;;;;;;;;;;4171706;34;20117;-70
2021/08/02 04:59:05;;;;;;;8.60;4.80;;;;;;;;;;4172018;34;20144;-70
2021/08/02 05:01:31;;;;;;;8.98;4.85;;;;;;;;;;4194374;34;20419;-70
2021/08/02 05:03:57;;;;;;;6.45;4.07;;;;;;;;;;4194313;34;20216;-70
2021/08/02 05:06:23;;;;;;;5.93;4.25;;;;;;;;;;4183242;34;20740;-70
2021/08/02 05:08:49;;;;;;;7.05;4.55;;;;;;;;;;4183129;34;20133;-70
2021/08/02 05:11:16;;;;;;;6.00;4.22;;;;;;;;;;4182785;34;20185;-70
2021/08/02 05:13:43;;;;;;;9.68;3.92;;;;;;;;;;4182813;34;20128;-70
2021/08/02 05:16:09;;;;;;;6.62;4.05;;;;;;;;;;4182088;34;20129;-69
2021/08/02 05:18:35;;;;;;;9.40;5.35;;;;;;;;;;4183173;34;20178;-69
2021/08/02 05:21:02;;;;;;;7.10;4.00;;;;;;;;;;4171431;34;20196;-69
2021/08/02 05:23:28;;;;;;;7.28;4.80;;;;;;;;;;4182982;34;20148;-70
2021/08/02 05:25:54;;;;;;;4.93;3.90;;;;;;;;;;4182960;34;20194;-70
2021/08/02 05:28:24;;;;;;;8.45;4.30;;;;;;;;;;4183080;34;20124;-70
2021/08/02 05:30:50;;;;;;;9.20;4.22;;;;;;;;;;4182478;34;20306;-70
2021/08/02 05:33:16;;;;;;;5.75;4.30;;;;;;;;;;4183119;34;20539;-70
2021/08/02 05:35:42;;;;;;;5.80;4.20;;;;;;;;;;4182289;34;20117;-70
2021/08/02 05:38:09;;;;;;;6.15;4.40;;;;;;;;;;4182820;34;20180;-70
2021/08/02 05:40:35;;;;;;;9.73;4.43;;;;;;;;;;4182717;34;20098;-70
2021/08/02 05:43:02;;;;;;;6.62;4.72;;;;;;;;;;4182359;34;20137;-70
2021/08/02 05:45:28;;;;;;;5.05;3.97;;;;;;;;;;4182435;34;20524;-70
2021/08/02 05:47:56;;;;;;;8.43;4.40;;;;;;;;;;4194067;34;20127;-70
2021/08/02 05:50:22;;;;;;;6.78;4.10;;;;;;;;;;4182459;33;20281;-70
2021/08/02 05:52:49;;;;;;;5.15;4.35;;;;;;;;;;4182376;34;20144;-70
2021/08/02 05:55:17;;;;;;;5.40;4.05;;;;;;;;;;4182107;34;20117;-69
2021/08/02 05:57:43;;;;;;;5.07;3.97;;;;;;;;;;4182654;34;20267;-70
2021/08/02 06:00:10;;;;;;;5.47;4.60;;;;;;;;;;4182395;33;20125;-70
2021/08/02 06:02:36;;;;;;;6.65;3.78;;;;;;;;;;4182280;34;20147;-70
2021/08/02 06:05:02;;;;;;;5.35;4.30;;;;;;;;;;4193715;33;20229;-70
2021/08/02 06:07:28;;;;;;;4.32;3.67;;;;;;;;;;4182392;34;20537;-70
2021/08/02 06:09:56;;;;;;;7.15;4.65;;;;;;;;;;4182169;34;20125;-70
2021/08/02 06:12:23;;;;;;;7.55;4.00;;;;;;;;;;4181999;34;20113;-70
2021/08/02 06:14:49;;;;;;;7.75;4.70;;;;;;;;;;4182430;34;20248;-69
2021/08/02 06:17:15;;;;;;;13.75;3.95;;;;;;;;;;4182154;34;20158;-69
2021/08/02 06:19:43;;;;;;;5.07;3.58;;;;;;;;;;4193482;34;20138;-69
2021/08/02 06:22:11;;;;;;;4.78;4.03;;;;;;;;;;4182584;34;20208;-71
2021/08/02 06:24:37;;;;;;;5.12;4.07;;;;;;;;;;4193447;34;20447;-70
2021/08/02 06:27:04;;;;;;;5.05;3.78;;;;;;;;;;4193185;34;20533;-71
2021/08/02 06:29:30;;;;;;;11.85;5.40;;;;;;;;;;4182237;34;20126;-69
2021/08/02 06:31:57;;;;;;;5.05;3.83;;;;;;;;;;4193741;34;20423;-69
2021/08/02 06:34:23;;;;;;;6.90;3.67;;;;;;;;;;4170698;34;20156;-69
2021/08/02 06:36:50;;;;;;;6.20;3.70;;;;;;;;;;4193524;34;20533;-69
2021/08/02 06:39:16;;;;;;;12.02;4.10;;;;;;;;;;4182062;34;20123;-69
2021/08/02 06:41:42;;;;;;;13.88;3.75;;;;;;;;;;4193170;34;20146;-70
2021/08/02 06:44:08;;;;;;;8.57;4.00;;;;;;;;;;4192852;34;20124;-70
2021/08/02 06:46:35;;;;;;;5.18;4.12;;;;;;;;;;4182116;34;20223;-70
2021/08/02 06:49:01;;;;;;;6.72;3.62;;;;;;;;;;4193516;34;20112;-69
2021/08/02 06:51:27;;;;;;;5.53;3.87;;;;;;;;;;4182157;34;20128;-69
2021/08/02 06:53:55;;;;;;;12.85;4.07;;;;;;;;;;4204918;34;20478;-69
2021/08/02 06:56:23;;;;;;;6.53;3.90;;;;;;;;;;4181233;34;20121;-69
2021/08/02 06:58:50;;;;;;;6.22;4.07;;;;;;;;;;4181864;34;20102;-69
2021/08/02 07:01:17;;;;;;;9.70;4.03;;;;;;;;;;4170582;34;20124;-71
2021/08/02 07:03:43;;;;;;;5.20;4.03;;;;;;;;;;4181863;34;20101;-70
2021/08/02 07:06:10;;;;;;;5.80;4.20;;;;;;;;;;4193328;34;20117;-69
2021/08/02 07:08:39;;;;;;;5.35;3.58;;;;;;;;;;4181995;34;20110;-71
2021/08/02 07:11:07;;;;;;;4.95;2.65;;;;;;;;;;4181986;34;20159;-69
2021/08/02 07:13:35;;;;;;;5.97;3.87;;;;;;;;;;4170905;34;20797;-72
2021/08/02 07:16:01;;;;;;;10.75;3.87;;;;;;;;;;4181505;34;20106;-70
2021/08/02 07:18:30;;;;;;;5.47;3.75;;;;;;;;;;4182156;34;20257;-70
2021/08/02 07:20:56;;;;;;;8.15;3.87;;;;;;;;;;4170638;34;20132;-69
2021/08/02 07:23:23;;;;;;;5.22;3.78;;;;;;;;;;4193010;34;20546;-69
2021/08/02 07:25:49;;;;;;;7.70;4.22;;;;;;;;;;4181789;34;20124;-69
2021/08/02 07:28:17;;;;;;;4.62;3.67;;;;;;;;;;4181690;34;20184;-70
2021/08/02 07:30:45;;;;;;;4.95;3.75;;;;;;;;;;4182077;34;20205;-69
2021/08/02 07:33:11;;;;;;;5.97;3.75;;;;;;;;;;4180872;34;20141;-70
2021/08/02 07:35:36;;;;;;;5.75;3.10;;;;;;;;;;4181904;34;20204;-69
2021/08/02 07:38:03;;;;;;;6.07;3.20;;;;;;;;;;4181856;34;20121;-69
2021/08/02 07:40:29;;;;;;;4.78;4.07;;;;;;;;;;4183578;34;20192;-69
2021/08/02 07:42:55;;;;;;;5.32;3.67;;;;;;;;;;4183849;34;20136;-69
2021/08/02 07:45:21;;;;;;;4.05;3.25;;;;;;;;;;4183719;33;20144;-69
2021/08/02 07:47:47;;;;;;;5.37;3.22;;;;;;;;;;4194957;34;20125;-66
2021/08/02 07:50:16;;;;;;;5.45;3.85;;;;;;;;;;4183638;33;20211;-67
2021/08/02 07:52:46;;;;;;;9.02;3.50;;;;;;;;;;4184009;34;20128;-68
2021/08/02 07:55:13;;;;;;;7.07;4.07;;;;;;;;;;4183499;33;20473;-67
2021/08/02 07:57:40;;;;;;;4.75;3.80;;;;;;;;;;4183432;34;20584;-69
2021/08/02 08:00:07;;;;;;;5.97;3.35;;;;;;;;;;4183377;33;20596;-68
2021/08/02 08:02:33;;;;;;;7.82;3.65;;;;;;;;;;4183528;34;20106;-69
2021/08/02 08:04:59;;;;;;;7.20;3.87;;;;;;;;;;4183081;34;20133;-66
2021/08/02 08:07:28;;;;;;;5.55;3.70;;;;;;;;;;4194940;34;20104;-66
2021/08/02 08:09:54;;;;;;;7.18;3.30;;;;;;;;;;4194669;34;20510;-67
2021/08/02 08:12:20;;;;;;;6.40;3.70;;;;;;;;;;4183263;34;20101;-67
2021/08/02 08:14:46;;;;;;;7.72;3.62;;;;;;;;;;4172164;34;20090;-66
2021/08/02 08:17:13;;;;;;;4.50;3.40;;;;;;;;;;4183344;34;20098;-66
2021/08/02 08:19:39;;;;;;;7.62;3.80;;;;;;;;;;4171865;34;20132;-67
2021/08/02 08:22:06;;;;;;;6.93;3.85;;;;;;;;;;4194464;34;20140;-67
2021/08/02 08:24:32;;;;;;;7.62;4.20;;;;;;;;;;4194457;34;20141;-65
2021/08/02 08:26:58;;;;;;;6.37;4.12;;;;;;;;;;4194337;34;20205;-66
2021/08/02 08:29:25;;;;;;;4.22;3.60;;;;;;;;;;4183131;34;20109;-66
2021/08/02 08:31:51;;;;;;;7.22;4.12;;;;;;;;;;4205970;34;20121;-67
2021/08/02 08:34:17;;;;;;;4.18;3.60;;;;;;;;;;4194719;34;20470;-67
2021/08/02 08:36:43;;;;;;;7.90;4.15;;;;;;;;;;4182979;34;20567;-67
2021/08/02 08:39:09;;;;;;;4.75;3.50;;;;;;;;;;4182613;34;20240;-66
2021/08/02 08:41:35;;;;;;;4.28;3.72;;;;;;;;;;4194412;34;20133;-65
2021/08/02 08:44:01;;;;;;;4.45;3.55;;;;;;;;;;4194440;34;20129;-66
2021/08/02 08:46:27;;;;;;;11.68;3.70;;;;;;;;;;4183115;34;20120;-66
2021/08/02 08:48:54;;;;;;;6.95;3.92;;;;;;;;;;4183075;34;20121;-67
2021/08/02 08:51:20;;;;;;;6.07;3.17;;;;;;;;;;4182755;34;20272;-66
2021/08/02 08:53:46;;;;;;;4.60;3.00;;;;;;;;;;4183278;34;20129;-66
2021/08/02 08:56:15;;;;;;;4.20;3.00;;;;;;;;;;4182909;34;20553;-66
2021/08/02 08:58:42;;;;;;;3.72;3.35;;;;;;;;;;4182773;34;20563;-66
2021/08/02 09:01:08;;;;;;;4.43;3.33;;;;;;;;;;4182721;34;20148;-67
2021/08/02 09:03:34;;;;;;;4.90;3.78;;;;;;;;;;4183212;34;20116;-66
2021/08/02 09:06:07;;;;;;;3.85;3.08;;;;;;;;;;4183024;34;20512;-66
2021/08/02 09:08:40;;;;;;;8.52;4.55;;;;;;;;;;4183009;34;20116;-66
2021/08/02 09:11:06;;;;;;;5.12;3.53;;;;;;;;;;4182948;34;20109;-66
2021/08/02 09:13:35;;;;;;;5.57;3.35;;;;;;;;;;4194300;34;20212;-67
2021/08/02 09:16:11;;;;;;;5.30;3.60;;;;;;;;;;4182931;34;20106;-67
2021/08/02 09:18:37;;;;;;;7.80;3.65;;;;;;;;;;4194321;34;20121;-67
2021/08/02 09:21:04;;;;;;;4.85;4.18;;;;;;;;;;4182399;34;20300;-67
2021/08/02 09:23:30;;;;;;;5.18;3.03;;;;;;;;;;4193973;34;20147;-67
2021/08/02 09:25:59;;;;;;;3.90;3.15;;;;;;;;;;4194073;34;20105;-67
2021/08/02 09:28:25;;;;;;;5.65;2.90;;;;;;;;;;4182828;34;20536;-67
2021/08/02 09:31:10;;;;;;;4.47;3.30;;;;;;;;;;4182503;34;20148;-67
2021/08/02 09:33:46;;;;;;;10.65;3.50;;;;;;;;;;4183326;34;20458;-67
2021/08/02 09:36:13;;;;;;;4.65;3.53;;;;;;;;;;4171417;34;20113;-66
2021/08/02 09:38:39;;;;;;;4.40;3.28;;;;;;;;;;4182551;34;20116;-67
2021/08/02 09:41:05;;;;;;;7.35;3.87;;;;;;;;;;4193881;34;20133;-67
2021/08/02 09:43:39;;;;;;;4.47;3.03;;;;;;;;;;4195815;34;20204;-67
2021/08/02 09:46:05;;;;;;;5.37;3.67;;;;;;;;;;4182265;34;20190;-67
2021/08/02 09:48:44;;;;;;;3.70;3.30;;;;;;;;;;4193887;34;20121;-67
2021/08/02 09:51:18;;;;;;;6.28;3.78;;;;;;;;;;4182210;34;20110;-67
2021/08/02 09:53:45;;;;;;;3.95;3.12;;;;;;;;;;4182801;34;20513;-67
2021/08/02 09:56:16;;;;;;;4.05;3.42;;;;;;;;;;4193664;34;20120;-67
2021/08/02 09:58:42;;;;;;;4.43;3.37;;;;;;;;;;4194160;34;20201;-67
2021/08/02 10:01:11;;;;;;;6.90;3.62;;;;;;;;;;4181566;34;20186;-66
2021/08/02 10:03:38;;;;;;;4.50;3.40;;;;;;;;;;4182467;34;20097;-67
2021/08/02 10:06:05;;;;;;;6.20;3.30;;;;;;;;;;4193733;34;20128;-66
2021/08/02 10:08:32;;;;;;;5.10;3.75;;;;;;;;;;4182526;34;20435;-67
2021/08/02 10:10:58;;;;;;;7.45;3.60;;;;;;;;;;4193796;34;20220;-66
2021/08/02 10:13:25;;;;;;;6.22;3.15;;;;;;;;;;4182619;34;20125;-66
2021/08/02 10:15:59;;;;;;;5.25;3.47;;;;;;;;;;4193561;34;20119;-67
2021/08/02 10:18:25;;;;;;;4.00;3.05;;;;;;;;;;4182155;34;20562;-67
2021/08/02 10:21:05;;;;;;;5.87;2.92;;;;;;;;;;4182323;34;20117;-67
2021/08/02 10:23:31;;;;;;;4.57;3.15;;;;;;;;;;4182439;34;20663;-67
2021/08/02 10:25:58;;;;;;;4.82;3.22;;;;;;;;;;4182000;34;20655;-67
2021/08/02 10:28:24;;;;;;;5.10;3.72;;;;;;;;;;4182294;34;20126;-67
2021/08/02 10:31:06;;;;;;;5.10;3.45;;;;;;;;;;4205013;34;20133;-66
2021/08/02 10:33:36;;;;;;;3.87;3.30;;;;;;;;;;4182731;34;20121;-66
2021/08/02 10:36:15;;;;;;;5.55;3.70;;;;;;;;;;4182489;34;20128;-66
2021/08/02 10:38:43;;;;;;;4.62;3.50;;;;;;;;;;4205156;34;20106;-67
2021/08/02 10:41:11;;;;;;;9.18;4.57;;;;;;;;;;4193815;34;20124;-66
2021/08/02 10:43:39;;;;;;;6.65;3.72;;;;;;;;;;4171217;34;20512;-66
2021/08/02 10:46:18;;;;;;;4.62;3.80;;;;;;;;;;4181872;34;20105;-66
2021/08/02 10:48:45;;;;;;;4.50;3.75;;;;;;;;;;4182363;34;20133;-66
2021/08/02 10:51:18;;;;;;;4.90;3.85;;;;;;;;;;4193290;34;20105;-66
2021/08/02 10:53:56;;;;;;;4.10;3.70;;;;;;;;;;4182328;34;20184;-66
2021/08/02 10:56:26;;;;;;;8.40;4.62;;;;;;;;;;4181976;34;20113;-66
2021/08/02 10:58:52;;;;;;;4.35;3.50;;;;;;;;;;4182199;34;20434;-66
2021/08/02 11:01:20;;;;;;;4.60;3.55;;;;;;;;;;4193492;34;20213;-67
2021/08/02 11:03:46;;;;;;;7.00;4.00;;;;;;;;;;4193207;34;20239;-66
2021/08/02 11:06:17;;;;;;;13.40;3.90;;;;;;;;;;4181654;34;20449;-66
2021/08/02 11:08:54;;;;;;;8.90;3.85;;;;;;;;;;4193348;34;20098;-67
2021/08/02 11:11:28;;;;;;;4.85;4.15;;;;;;;;;;4181550;34;20113;-67
2021/08/02 11:14:08;;;;;;;8.02;4.30;;;;;;;;;;4195734;34;20112;-66
2021/08/02 11:16:44;;;;;;;4.60;3.80;;;;;;;;;;4194993;34;20110;-66
2021/08/02 11:19:17;;;;;;;4.30;3.80;;;;;;;;;;4206930;34;20176;-67
2021/08/02 11:21:45;;;;;;;6.57;3.90;;;;;;;;;;4183720;34;20189;-67
2021/08/02 11:24:11;;;;;;;3.78;3.30;;;;;;;;;;4183908;34;20113;-66
2021/08/02 11:26:47;;;;;;;5.00;3.78;;;;;;;;;;4184034;34;20110;-66
2021/08/02 11:29:21;;;;;;;7.55;3.85;;;;;;;;;;4183692;34;20132;-67
2021/08/02 11:31:54;;;;;;;3.72;3.10;;;;;;;;;;4184012;34;20508;-67
2021/08/02 11:34:21;;;;;;;5.50;4.20;;;;;;;;;;4184083;34;20193;-67
2021/08/02 11:37:07;;;;;;;7.95;4.18;;;;;;;;;;4172444;34;20126;-65
2021/08/02 11:39:33;;;;;;;;;;;;;;;;;;4196055;34;20102;-66
2021/08/02 11:42:00;;;;;;;6.72;4.03;;;;;;;;;;4195121;34;19981;-66
2021/08/02 11:44:26;;;;;;;3.92;3.50;;;;;;;;;;4195234;34;20665;-66
2021/08/02 11:46:54;;;;;;;3.70;3.10;;;;;;;;;;4183693;34;20199;-65
2021/08/02 11:49:20;;;;;;;5.32;4.22;;;;;;;;;;4183888;34;20189;-66
2021/08/02 11:51:46;;;;;;;6.85;3.70;;;;;;;;;;4194930;34;20098;-67
2021/08/02 11:54:19;;;;;;;6.05;3.45;;;;;;;;;;4194986;34;20192;-69
2021/08/02 11:56:45;;;;;;;5.37;3.87;;;;;;;;;;4183724;34;20114;-69
2021/08/02 11:59:26;;;;;;;7.68;4.30;;;;;;;;;;4195174;34;20368;-69
2021/08/02 12:01:54;;;;;;;4.87;3.80;;;;;;;;;;4172122;34;20193;-68
2021/08/02 12:04:21;;;;;;;5.43;3.87;;;;;;;;;;4184100;34;20097;-68
2021/08/02 12:06:50;;;;;;;15.82;4.68;;;;;;;;;;4195097;34;20109;-68
2021/08/02 12:09:27;;;;;;;11.27;4.78;;;;;;;;;;4195069;34;20116;-67
2021/08/02 12:11:53;;;;;;;4.72;3.60;;;;;;;;;;4184513;34;20173;-66
2021/08/02 12:14:23;;;;;;;4.95;3.78;;;;;;;;;;4195259;34;20111;-68
2021/08/02 12:17:02;;;;;;;6.25;4.40;;;;;;;;;;4195090;34;20101;-68
2021/08/02 12:19:28;;;;;;;5.05;3.58;;;;;;;;;;4183647;34;20524;-68
2021/08/02 12:21:59;;;;;;;6.25;4.00;;;;;;;;;;4194704;34;20113;-68
2021/08/02 12:24:25;;;;;;;5.43;3.90;;;;;;;;;;4183225;34;20518;-68
2021/08/02 12:26:53;;;;;;;8.90;3.83;;;;;;;;;;4194787;34;20100;-68
2021/08/02 12:29:26;;;;;;;4.93;4.10;;;;;;;;;;4183556;34;20110;-68
2021/08/02 12:32:00;;;;;;;5.47;4.55;;;;;;;;;;4183457;34;20741;-68
2021/08/02 12:34:28;;;;;;;4.75;3.97;;;;;;;;;;4183857;34;20108;-68
2021/08/02 12:36:55;;;;;;;4.90;3.67;;;;;;;;;;4183439;34;20129;-68
2021/08/02 12:39:22;;;;;;;4.28;3.55;;;;;;;;;;4183679;34;20217;-68
2021/08/02 12:41:48;;;;;;;6.82;4.82;;;;;;;;;;4183474;34;20121;-68
2021/08/02 12:44:14;;;;;;;4.47;3.42;;;;;;;;;;4183620;34;20108;-68
2021/08/02 12:46:40;;;;;;;6.32;4.12;;;;;;;;;;4183122;34;20113;-68
2021/08/02 12:49:06;;;;;;;5.95;3.62;;;;;;;;;;4183660;34;20105;-68
2021/08/02 12:51:32;;;;;;;4.07;3.67;;;;;;;;;;4206284;34;20144;-68
2021/08/02 12:53:58;;;;;;;5.95;3.55;;;;;;;;;;4183296;34;20200;-68
2021/08/02 12:56:24;;;;;;;9.73;4.30;;;;;;;;;;4194473;34;20120;-67
2021/08/02 12:58:50;;;;;;;8.13;4.20;;;;;;;;;;4194602;34;20132;-67
2021/08/02 13:01:17;;;;;;;5.97;3.80;;;;;;;;;;4194497;34;20125;-65
2021/08/02 13:03:43;;;;;;;7.30;4.25;;;;;;;;;;4183178;34;20450;-67
2021/08/02 13:06:13;;;;;;;7.80;4.30;;;;;;;;;;4194437;34;20268;-66
2021/08/02 13:08:39;;;;;;;4.75;4.15;;;;;;;;;;4194693;34;20426;-66
2021/08/02 13:11:05;;;;;;;5.50;3.72;;;;;;;;;;4182819;34;20571;-66
2021/08/02 13:13:31;;;;;;;4.47;3.75;;;;;;;;;;4194446;34;20121;-67
2021/08/02 13:15:58;;;;;;;5.60;3.72;;;;;;;;;;4182698;34;20133;-66
2021/08/02 13:18:24;;;;;;;6.28;3.83;;;;;;;;;;4194429;34;20108;-67
2021/08/02 13:20:51;;;;;;;7.70;4.32;;;;;;;;;;4194518;34;20121;-66
2021/08/02 13:28:37;;;;;;;7.60;4.30;;;;;;;;;;4196194;34;20328;-66
2021/08/02 13:31:03;;;;;;;9.18;3.70;;;;;;;;;;4182665;34;20301;-66
2021/08/02 13:33:30;;;;;;;6.47;4.40;;;;;;;;;;4183018;34;20126;-66
2021/08/02 13:35:56;;;;;;;4.28;3.70;;;;;;;;;;4193286;34;20161;-66
2021/08/02 13:38:24;;;;;;;6.55;4.55;;;;;;;;;;4194242;34;20110;-67
2021/08/02 13:40:50;;;;;;;5.75;4.05;;;;;;;;;;4182737;34;20094;-66
2021/08/02 13:43:16;;;;;;;6.55;3.75;;;;;;;;;;4205865;34;20109;-67
2021/08/02 13:45:43;;;;;;;10.90;4.12;;;;;;;;;;4182652;34;20121;-67
2021/08/02 13:48:09;;;;;;;15.07;5.12;;;;;;;;;;4171592;34;20196;-67
2021/08/02 13:50:35;;;;;;;5.62;4.57;;;;;;;;;;4182938;34;20105;-65
2021/08/02 13:53:04;;;;;;;8.40;4.50;;;;;;;;;;4182049;34;20282;-67
2021/08/02 13:55:34;;;;;;;5.60;4.22;;;;;;;;;;4193759;34;20140;-67
2021/08/02 13:58:01;;;;;;;5.72;3.70;;;;;;;;;;4182150;34;20455;-67
2021/08/02 14:00:27;;;;;;;9.60;5.07;;;;;;;;;;4204510;34;20133;-67
2021/08/02 14:02:54;;;;;;;6.35;5.03;;;;;;;;;;4192763;34;20137;-67
2021/08/02 14:05:20;;;;;;;11.45;4.65;;;;;;;;;;4204876;33;20283;-66
2021/08/02 14:07:46;;;;;;;8.07;4.47;;;;;;;;;;4181646;34;20121;-67
2021/08/02 14:10:12;;;;;;;5.37;3.87;;;;;;;;;;4182437;33;20101;-66
2021/08/02 14:12:39;;;;;;;6.37;4.35;;;;;;;;;;4182524;34;20210;-67
2021/08/02 14:15:07;;;;;;;6.75;4.30;;;;;;;;;;4182641;33;20114;-66
2021/08/02 14:17:56;;;;;;;13.10;5.15;;;;;;;;;;4182360;34;20097;-66
2021/08/02 14:20:22;;;;;;;5.50;4.72;;;;;;;;;;4193890;33;20189;-67
2021/08/02 14:22:48;;;;;;;10.65;5.57;;;;;;;;;;4182572;34;20102;-67
2021/08/02 14:25:15;;;;;;;9.13;5.50;;;;;;;;;;4193617;33;20140;-66
2021/08/02 14:27:41;;;;;;;13.40;5.20;;;;;;;;;;4182537;34;20114;-66
2021/08/02 14:30:08;;;;;;;9.90;4.82;;;;;;;;;;4182187;33;20506;-65
2021/08/02 14:32:39;;;;;;;12.05;5.45;;;;;;;;;;4182576;34;20339;-65
2021/08/02 14:35:06;;;;;;;9.07;5.82;;;;;;;;;;4193816;33;20105;-65
2021/08/02 14:37:32;;;;;;;8.20;5.30;;;;;;;;;;4182304;34;20201;-66
2021/08/02 14:39:59;;;;;;;9.88;5.57;;;;;;;;;;4182231;34;20109;-65
2021/08/02 14:42:29;;;;;;;13.18;5.75;;;;;;;;;;4182059;34;20129;-67
2021/08/02 14:45:01;;;;;;;10.40;6.60;;;;;;;;;;4182168;34;20106;-66
2021/08/02 14:47:32;;;;;;;9.77;5.18;;;;;;;;;;4193267;34;20182;-65
2021/08/02 14:50:06;;;;;;;8.02;5.93;;;;;;;;;;4174116;34;20148;-67
2021/08/02 14:52:37;;;;;;;10.68;5.05;;;;;;;;;;4169271;34;20098;-67
2021/08/02 14:55:06;;;;;;;11.30;5.22;;;;;;;;;;4168509;34;20100;-67
2021/08/02 14:57:39;;;;;;;7.20;5.05;;;;;;;;;;4168723;34;20086;-67
2021/08/02 15:00:11;;;;;;;8.38;5.30;;;;;;;;;;4168207;34;20117;-64
2021/08/02 15:02:38;;;;;;;10.05;4.85;;;;;;;;;;4178232;34;20177;-70
2021/08/02 15:05:05;;;;;;;15.07;5.20;;;;;;;;;;4198014;33;20196;-69
2021/08/02 15:07:31;;;;;;;7.50;4.37;;;;;;;;;;4190125;34;20137;-69
2021/08/02 15:09:57;;;;;;;9.07;4.75;;;;;;;;;;4168226;34;20505;-68